createdAt,value
2023-03-28T00:02:13.445Z,1.02
2023-03-28T00:07:15.170Z,1.20
2023-03-28T00:12:16.940Z,1.10
2023-03-28T00:17:18.662Z,0.88
2023-03-28T00:22:21.347Z,1.10
2023-03-28T00:27:23.062Z,1.30
2023-03-28T00:32:24.806Z,1.30
2023-03-28T00:37:26.554Z,1.13
2023-03-28T00:42:28.224Z,1.20
2023-03-28T00:48:02.145Z,1.40
2023-03-28T00:53:14.561Z,1.00
2023-03-28T00:58:23.121Z,1.15
2023-03-28T01:03:30.495Z,1.10
2023-03-28T01:08:35.867Z,1.27
2023-03-28T01:13:42.139Z,1.23
2023-03-28T01:18:51.521Z,1.25
2023-03-28T01:24:11.949Z,1.42
2023-03-28T01:30:02.345Z,1.58
2023-03-28T01:35:13.076Z,1.40
2023-03-28T01:40:36.973Z,1.00
2023-03-28T01:46:00.441Z,1.60
2023-03-28T01:51:12.293Z,1.80
2023-03-28T01:56:42.384Z,1.58
2023-03-28T02:02:09.905Z,1.70
2023-03-28T02:07:13.097Z,1.65
2023-03-28T02:12:25.007Z,1.55
2023-03-28T02:17:28.972Z,1.75
2023-03-28T02:22:54.577Z,1.80
2023-03-28T02:28:01.206Z,1.67
2023-03-28T02:33:06.231Z,1.65
2023-03-28T02:38:32.035Z,1.88
2023-03-28T02:43:58.120Z,1.58
2023-03-28T02:48:59.806Z,1.77
2023-03-28T02:54:25.524Z,1.80
2023-03-28T02:59:53.709Z,2.13
2023-03-28T03:04:57.737Z,2.30
2023-03-28T03:10:00.829Z,2.25
2023-03-28T03:15:04.708Z,2.63
2023-03-28T03:20:07.366Z,1.98
2023-03-28T03:25:11.454Z,1.95
2023-03-28T03:30:14.423Z,2.22
2023-03-28T03:35:16.146Z,1.60
2023-03-28T03:40:18.703Z,1.90
2023-03-28T03:45:20.490Z,2.25
2023-03-28T03:50:22.204Z,2.30
2023-03-28T03:55:23.981Z,2.25
2023-03-28T04:00:25.747Z,2.00
2023-03-28T04:05:27.495Z,1.90
2023-03-28T04:10:29.204Z,1.90
2023-03-28T04:15:30.870Z,2.08
2023-03-28T04:20:32.572Z,2.17
2023-03-28T04:25:34.664Z,2.65
2023-03-28T04:30:38.249Z,2.38
2023-03-28T04:35:40.016Z,1.95
2023-03-28T04:40:44.644Z,2.35
2023-03-28T04:45:46.516Z,2.40
2023-03-28T04:50:48.699Z,2.45
2023-03-28T04:55:50.649Z,2.45
2023-03-28T05:00:53.893Z,2.50
2023-03-28T05:05:55.959Z,2.40
2023-03-28T05:10:57.810Z,3.10
2023-03-28T05:15:59.624Z,3.17
2023-03-28T05:21:01.567Z,2.60
2023-03-28T05:26:03.868Z,2.78
2023-03-28T05:31:07.555Z,3.45
2023-03-28T05:36:10.416Z,3.60
2023-03-28T05:41:12.256Z,3.17
2023-03-28T05:46:14.004Z,3.13
2023-03-28T05:51:16.929Z,3.40
2023-03-28T05:56:18.739Z,3.05
2023-03-28T06:01:23.406Z,3.45
2023-03-28T06:06:25.214Z,3.58
2023-03-28T06:11:27.121Z,3.50
2023-03-28T06:16:30.073Z,3.92
2023-03-28T06:21:32.328Z,3.95
2023-03-28T06:26:34.121Z,3.50
2023-03-28T06:31:36.204Z,3.05
2023-03-28T06:36:37.959Z,3.20
2023-03-28T06:41:39.919Z,3.30
2023-03-28T06:46:41.702Z,2.85
2023-03-28T06:51:43.464Z,3.13
2023-03-28T06:56:45.622Z,3.20
2023-03-28T07:01:47.396Z,2.97
2023-03-28T07:06:49.445Z,2.90
2023-03-28T07:11:51.107Z,2.08
2023-03-28T07:16:52.922Z,2.50
2023-03-28T07:21:54.714Z,2.15
2023-03-28T07:27:11.796Z,2.00
2023-03-28T07:32:17.043Z,2.05
2023-03-28T07:37:19.370Z,1.98
2023-03-28T07:42:21.741Z,2.30
2023-03-28T07:47:23.496Z,2.55
2023-03-28T07:52:25.202Z,2.50
2023-03-28T07:57:27.042Z,2.28
2023-03-28T08:02:29.146Z,2.58
2023-03-28T08:07:31.690Z,1.80
2023-03-28T08:12:34.425Z,2.42
2023-03-28T08:17:36.176Z,1.88
2023-03-28T08:22:38.044Z,2.00
2023-03-28T08:27:39.896Z,2.28
2023-03-28T08:32:42.124Z,1.90
2023-03-28T08:37:43.968Z,1.67
2023-03-28T08:43:19.427Z,1.80
2023-03-28T08:48:36.884Z,1.60
2023-03-28T08:53:44.603Z,1.60
2023-03-28T08:58:59.239Z,1.83
2023-03-28T09:04:01.608Z,2.10
2023-03-28T09:09:13.734Z,1.80
2023-03-28T09:14:41.669Z,1.90
2023-03-28T09:20:17.742Z,1.60
2023-03-28T09:25:30.684Z,1.75
2023-03-28T09:30:36.221Z,1.38
2023-03-28T09:35:39.654Z,1.77
2023-03-28T09:40:46.541Z,1.50
2023-03-28T09:45:59.700Z,1.75
2023-03-28T09:51:03.575Z,2.20
2023-03-28T09:56:18.228Z,2.00
2023-03-28T10:01:24.753Z,1.70
2023-03-28T10:06:31.668Z,1.77
2023-03-28T10:11:48.983Z,1.77
2023-03-28T10:16:51.997Z,2.00
2023-03-28T10:21:53.758Z,1.30
2023-03-28T10:27:35.799Z,1.67
2023-03-28T10:32:37.574Z,1.67
2023-03-28T10:37:42.691Z,1.65
2023-03-28T10:42:45.643Z,1.73
2023-03-28T10:47:51.258Z,2.10
2023-03-28T10:53:10.549Z,1.60
2023-03-28T10:58:12.272Z,1.90
2023-03-28T11:03:32.619Z,2.30
2023-03-28T11:09:13.318Z,2.38
2023-03-28T11:14:28.672Z,2.80
2023-03-28T11:20:03.887Z,2.10
2023-03-28T11:25:29.731Z,2.58
2023-03-28T11:30:33.713Z,2.55
2023-03-28T11:35:39.997Z,2.10
2023-03-28T11:41:19.078Z,2.13
2023-03-28T11:46:43.106Z,2.30
2023-03-28T11:51:48.722Z,2.42
2023-03-28T11:56:57.141Z,1.80
2023-03-28T12:02:11.678Z,2.10
2023-03-28T12:07:25.629Z,2.60
2023-03-28T12:12:31.000Z,2.42
2023-03-28T12:23:38.480Z,2.28
2023-03-28T12:28:45.694Z,1.80
2023-03-28T12:34:03.651Z,2.03
2023-03-28T12:39:42.393Z,1.92
2023-03-28T12:44:53.103Z,2.60
2023-03-28T12:50:28.311Z,2.10
2023-03-28T12:55:31.542Z,2.15
2023-03-28T13:00:40.152Z,2.30
2023-03-28T13:05:59.181Z,2.20
2023-03-28T13:11:13.476Z,2.28
2023-03-28T13:16:37.237Z,2.35
2023-03-28T13:21:50.326Z,2.10
2023-03-28T13:27:04.723Z,1.88
2023-03-28T13:32:06.786Z,3.05
2023-03-28T13:37:24.108Z,2.03
2023-03-28T13:42:32.535Z,1.67
2023-03-28T13:47:39.904Z,1.80
2023-03-28T13:52:41.658Z,2.00
2023-03-28T13:57:43.705Z,1.95
2023-03-28T14:02:51.342Z,2.25
2023-03-28T14:07:55.369Z,2.33
2023-03-28T14:13:02.159Z,2.00
2023-03-28T14:18:04.198Z,1.60
2023-03-28T14:23:07.031Z,1.45
2023-03-28T14:28:09.314Z,1.65
2023-03-28T14:33:13.501Z,1.60
2023-03-28T14:38:29.303Z,1.95
2023-03-28T14:43:31.832Z,1.45
2023-03-28T14:48:35.530Z,1.75
2023-03-28T14:53:42.431Z,1.35
2023-03-28T14:58:47.236Z,1.65
2023-03-28T15:03:57.969Z,1.25
2023-03-28T15:09:09.212Z,1.70
2023-03-28T15:14:22.715Z,1.95
2023-03-28T15:19:41.546Z,1.40
2023-03-28T15:24:44.869Z,1.50
2023-03-28T15:29:48.203Z,1.50
2023-03-28T15:35:05.048Z,1.67
2023-03-28T15:40:19.253Z,1.40
2023-03-28T15:45:42.382Z,1.63
2023-03-28T15:50:50.457Z,1.38
2023-03-28T15:55:52.381Z,1.58
2023-03-28T16:00:54.653Z,3.28
2023-03-28T16:06:31.645Z,1.58
2023-03-28T16:11:34.568Z,1.45
2023-03-28T16:16:39.882Z,1.20
2023-03-28T16:21:41.698Z,1.30
2023-03-28T16:26:43.900Z,1.30
2023-03-28T16:31:45.791Z,1.70
2023-03-28T16:36:48.843Z,1.50
2023-03-28T16:41:50.666Z,1.52
2023-03-28T16:46:52.993Z,1.20
2023-03-28T16:51:55.775Z,1.35
2023-03-28T16:56:57.706Z,2.30
2023-03-28T17:01:59.468Z,1.60
2023-03-28T17:07:01.312Z,3.72
2023-03-28T17:12:03.132Z,1.50
2023-03-28T17:17:04.858Z,1.67
2023-03-28T17:22:07.083Z,1.50
2023-03-28T17:27:09.112Z,2.17
2023-03-28T17:32:11.594Z,1.85
2023-03-28T17:37:13.581Z,1.70
2023-03-28T17:42:15.443Z,2.72
2023-03-28T17:47:17.373Z,2.65
2023-03-28T17:52:19.122Z,9.70
2023-03-28T17:57:20.928Z,3.35
2023-03-28T18:02:23.239Z,3.05
2023-03-28T18:07:25.750Z,2.70
2023-03-28T18:12:27.430Z,3.50
2023-03-28T18:17:29.501Z,3.38
2023-03-28T18:22:31.819Z,3.33
2023-03-28T18:27:33.770Z,3.33
2023-03-28T18:32:36.315Z,3.10
2023-03-28T18:37:38.074Z,2.90
2023-03-28T18:42:40.236Z,3.53
2023-03-28T18:47:42.053Z,8.40
2023-03-28T18:52:43.977Z,5.35
2023-03-28T18:57:45.858Z,5.10
2023-03-28T19:02:49.336Z,2.50
2023-03-28T19:07:51.605Z,2.63
2023-03-28T19:12:54.340Z,2.33
2023-03-28T19:17:57.186Z,2.47
2023-03-28T19:23:05.761Z,3.80
2023-03-28T19:28:07.465Z,4.47
2023-03-28T19:33:09.646Z,3.97
2023-03-28T19:38:11.435Z,5.68
2023-03-28T19:43:13.614Z,6.47
2023-03-28T19:48:16.838Z,5.55
2023-03-28T19:53:18.605Z,5.00
2023-03-28T19:58:20.607Z,5.20
2023-03-28T20:03:22.428Z,4.90
2023-03-28T20:08:24.452Z,4.55
2023-03-28T20:13:26.266Z,3.92
2023-03-28T20:18:32.836Z,3.88
2023-03-28T20:23:34.893Z,5.05
2023-03-28T20:28:36.693Z,4.47
2023-03-28T20:33:38.679Z,4.30
2023-03-28T20:38:42.676Z,4.00
2023-03-28T20:43:47.135Z,3.50
2023-03-28T20:48:52.388Z,3.90
2023-03-28T20:54:00.003Z,3.38
2023-03-28T20:59:04.246Z,3.60
2023-03-28T21:04:07.108Z,2.85
2023-03-28T21:09:12.905Z,5.30
2023-03-28T21:14:14.677Z,2.40
2023-03-28T21:19:16.526Z,2.55
2023-03-28T21:24:18.494Z,1.83
2023-03-28T21:29:20.294Z,2.10
2023-03-28T21:34:30.487Z,2.17
2023-03-28T21:39:32.305Z,2.55
2023-03-28T21:44:34.824Z,2.40
2023-03-28T21:49:37.495Z,2.70
2023-03-28T21:54:39.235Z,2.35
2023-03-28T21:59:41.460Z,2.40
2023-03-28T22:04:43.634Z,2.22
2023-03-28T22:09:45.318Z,2.70
2023-03-28T22:14:46.983Z,2.22
2023-03-28T22:19:49.941Z,2.60
2023-03-28T22:24:51.612Z,2.90
2023-03-28T22:29:53.334Z,3.25
2023-03-28T22:34:55.041Z,3.17
2023-03-28T22:39:57.151Z,3.10
2023-03-28T22:44:58.907Z,3.17
2023-03-28T22:50:00.807Z,3.15
2023-03-28T22:55:04.320Z,2.40
2023-03-28T23:00:08.230Z,2.65
2023-03-28T23:05:11.091Z,3.15
2023-03-28T23:10:15.935Z,2.60
2023-03-28T23:15:17.690Z,2.92
2023-03-28T23:20:20.030Z,3.40
2023-03-28T23:25:22.305Z,3.05
2023-03-28T23:30:24.165Z,3.05
2023-03-28T23:35:26.002Z,2.95
2023-03-28T23:40:28.290Z,3.40
2023-03-28T23:45:30.547Z,3.58
2023-03-28T23:50:32.519Z,3.50
2023-03-28T23:55:34.565Z,3.47
